Flight Track Log - Related Links

Times and Time Zones

All times are in EST time to prevent confusion due to time zone crossing. See the AMF1324 flight status page for this flight to view local times or setup timezone preferences in your user account.

Time Position Orientation Groundspeed Altitude Reporting Facility
EST Latitude Longitude Course Direction KTS MPH feet Rate Location/Type
Tue 09:56:33 AM 42.9667 -78.7000 36° Northeast 155 178 2,500  Level Buffalo TRACON
Tue 09:57:33 AM 42.9667 -78.6500 90° East 179 206 4,500 1,958 Climbing Buffalo TRACON
Tue 09:58:08 AM 42.9503 -78.6086 118° Southeast 183 211 5,600 1,856 Climbing Cleveland Center
Tue 09:59:10 AM 42.9272 -78.5378 114° Southeast 196 226 7,500 1,887 Climbing Cleveland Center
Tue 10:00:12 AM 42.9019 -78.4636 115° Southeast 208 239 9,500 1,645 Climbing Cleveland Center
Tue 10:01:14 AM 42.8825 -78.3939 111° Southeast 215 247 10,900 774 Climbing Cleveland Center
Tue 10:02:16 AM 42.8583 -78.3053 110° East 253 291 11,100 49 Climbing Cleveland Center
Tue 10:03:17 AM 42.8347 -78.2078 108° East 272 313 11,000 -49 Descending Cleveland Center
Tue 10:04:19 AM 42.8286 -78.0867 94° East 267 307 11,000  Level Cleveland Center
Tue 10:05:21 AM 42.8322 -77.9853 87° East 268 308 11,000 48 Level Cleveland Center
Tue 10:06:23 AM 42.8353 -77.8825 88° East 269 310 11,100 48 Climbing Cleveland Center
Tue 10:07:25 AM 42.8456 -77.7856 82° East 270 311 11,100 -48 Level Cleveland Center
Tue 10:08:27 AM 42.8936 -77.8228 330° Northwest 253 291 11,000  Descending Cleveland Center
Tue 10:09:29 AM 42.8811 -77.9147 260° West 249 287 11,100 -59 Climbing Cleveland Center
Tue 10:10:09 AM 42.8708 -77.9831 258° West 232 267 10,900 -98 Descending Cleveland Center
Tue 10:10:30 AM 42.8689 -77.9992 261° West 225 259 11,000 -434 Climbing Cleveland Center
Tue 10:11:32 AM 42.8653 -78.0964 267° West 218 251 10,300 -871 Descending Cleveland Center
Tue 10:12:34 AM 42.8692 -78.1828 274° West 228 262 9,200 -1,258 Descending Cleveland Center
Tue 10:13:36 AM 42.8592 -78.2667 261° West 215 247 7,700 -1,694 Descending Cleveland Center
Tue 10:14:38 AM 42.8508 -78.3536 263° West 221 254 5,700 -1,500 Descending Cleveland Center
Tue 10:15:40 AM 42.8528 -78.4297 272° West 210 242 4,600 -1,073 Descending Cleveland Center
Tue 10:16:41 AM 42.8600 -78.5142 277° West 201 231 3,500 -976 Descending Cleveland Center
Tue 10:17:43 AM 42.8639 -78.5817 275° West 188 216 2,600 -545 Descending Cleveland Center
Tue 10:18:53 AM 42.9000 -78.6333 314° West 145 167 2,300 -485 Descending Buffalo TRACON
Tue 10:19:59 AM 42.9167 -78.6833 294° West 116 133 1,500 -714 Descending Buffalo TRACON
Tue 10:20:59 AM 42.9333 -78.7167 304° West 116 133 800 -700 Descending Buffalo TRACON
Tue 10:22:00 AM 42.9404 -78.7306 90° East  Level Estimated
Tue 10:29:00 AM 42.9404 -78.7306 276° West  Level Estimated

Login

Don't have an account? Register now (free) for customized features, flight alerts, and more!